Time;durP1;ratioP1;P1;durP2;ratioP2;P2;SDS_P1;SDS_P2;PMS_P1;PMS_P2;Temp;Humidity;BMP_temperature;BMP_pressure;BME280_temperature;BME280_humidity;BME280_pressure;Samples;Min_cycle;Max_cycle;Signal;HPM_P1;HPM_P2
2023/10/18 00:02:00;;;;;;;22.17;19.77;;;;;;;;;;5055667;28;20617;-69
2023/10/18 00:04:28;;;;;;;19.93;17.37;;;;;;;;;;5055709;28;20685;-69
2023/10/18 00:06:54;;;;;;;20.37;18.03;;;;;;;;;;5071445;28;20218;-70
2023/10/18 00:09:45;;;;;;;22.63;18.90;;;;;;;;;;5075994;28;20195;-70
2023/10/18 00:12:11;;;;;;;19.47;17.07;;;;;;;;;;5057710;28;20205;-70
2023/10/18 00:14:39;;;;;;;20.80;18.60;;;;;;;;;;5057844;28;20194;-70
2023/10/18 00:17:06;;;;;;;19.93;17.83;;;;;;;;;;5075092;28;20628;-70
2023/10/18 00:19:32;;;;;;;21.60;16.93;;;;;;;;;;5075008;28;20209;-69
2023/10/18 00:21:58;;;;;;;23.47;19.67;;;;;;;;;;5057466;28;20173;-70
2023/10/18 00:24:24;;;;;;;21.30;19.00;;;;;;;;;;5075025;28;20186;-70
2023/10/18 00:26:51;;;;;;;21.10;18.87;;;;;;;;;;5073762;28;20221;-69
2023/10/18 00:29:17;;;;;;;26.20;18.03;;;;;;;;;;5072400;28;20577;-69
2023/10/18 00:31:43;;;;;;;23.03;18.53;;;;;;;;;;5049287;28;20193;-69
2023/10/18 00:34:11;;;;;;;24.27;18.83;;;;;;;;;;5060373;28;20174;-70
2023/10/18 00:36:37;;;;;;;26.37;21.37;;;;;;;;;;5077386;28;20201;-71
2023/10/18 00:39:27;;;;;;;24.40;20.07;;;;;;;;;;5066306;28;20246;-70
2023/10/18 00:41:53;;;;;;;24.50;19.93;;;;;;;;;;5058402;28;20158;-70
2023/10/18 00:44:21;;;;;;;29.33;22.33;;;;;;;;;;5039971;28;20652;-69
2023/10/18 00:46:47;;;;;;;25.50;21.33;;;;;;;;;;5057677;28;20583;-69
2023/10/18 00:49:14;;;;;;;15.93;13.83;;;;;;;;;;5058125;28;20224;-69
2023/10/18 00:51:42;;;;;;;17.57;13.53;;;;;;;;;;5039850;28;20187;-69
2023/10/18 00:54:11;;;;;;;17.77;13.90;;;;;;;;;;5058050;28;20203;-69
2023/10/18 00:56:38;;;;;;;15.57;12.73;;;;;;;;;;5039565;28;20210;-71
2023/10/18 00:59:18;;;;;;;13.50;12.00;;;;;;;;;;5057566;28;20182;-69
2023/10/18 01:01:44;;;;;;;15.53;10.20;;;;;;;;;;5039938;28;20167;-69
2023/10/18 01:04:12;;;;;;;14.67;11.70;;;;;;;;;;5039577;28;20182;-69
2023/10/18 01:06:41;;;;;;;18.70;11.73;;;;;;;;;;5039406;28;20222;-69
2023/10/18 01:09:15;;;;;;;14.00;11.33;;;;;;;;;;5057013;28;20175;-69
2023/10/18 01:11:41;;;;;;;18.43;12.50;;;;;;;;;;5057459;28;20157;-70
2023/10/18 01:14:07;;;;;;;12.07;10.53;;;;;;;;;;5057513;28;20178;-69
2023/10/18 01:16:37;;;;;;;13.20;10.80;;;;;;;;;;5039054;28;20680;-69
2023/10/18 01:19:08;;;;;;;16.93;11.23;;;;;;;;;;5057867;28;20174;-69
2023/10/18 01:21:34;;;;;;;13.10;11.80;;;;;;;;;;5056675;28;20162;-69
2023/10/18 01:24:01;;;;;;;11.33;10.13;;;;;;;;;;5038883;28;20274;-69
2023/10/18 01:26:28;;;;;;;15.20;12.10;;;;;;;;;;5039033;28;20221;-69
2023/10/18 01:28:55;;;;;;;15.20;13.60;;;;;;;;;;5056860;28;20174;-69
2023/10/18 01:31:21;;;;;;;15.57;13.97;;;;;;;;;;5058066;28;20253;-69
2023/10/18 01:33:48;;;;;;;13.80;10.40;;;;;;;;;;5038849;28;20228;-69
2023/10/18 01:36:18;;;;;;;16.33;13.90;;;;;;;;;;5038913;28;20218;-69
2023/10/18 01:38:48;;;;;;;17.73;14.70;;;;;;;;;;5039066;28;20178;-69
2023/10/18 01:41:25;;;;;;;19.60;15.63;;;;;;;;;;5057121;28;20179;-69
2023/10/18 01:43:51;;;;;;;17.77;15.93;;;;;;;;;;5039217;28;20190;-69
2023/10/18 01:46:18;;;;;;;21.03;18.67;;;;;;;;;;5057534;28;20206;-69
2023/10/18 01:48:50;;;;;;;27.43;18.90;;;;;;;;;;5039667;28;20181;-69
2023/10/18 01:51:16;;;;;;;18.10;16.13;;;;;;;;;;5056965;28;20159;-69
2023/10/18 01:53:43;;;;;;;18.10;15.50;;;;;;;;;;5039237;28;20189;-70
2023/10/18 01:56:09;;;;;;;23.53;18.57;;;;;;;;;;5056301;28;20190;-69
2023/10/18 01:58:35;;;;;;;19.23;14.13;;;;;;;;;;5056703;28;20663;-71
2023/10/18 02:01:03;;;;;;;22.00;18.07;;;;;;;;;;5056469;28;20184;-69
2023/10/18 02:03:29;;;;;;;22.30;17.50;;;;;;;;;;5038409;28;20190;-69
2023/10/18 02:05:56;;;;;;;24.53;17.63;;;;;;;;;;5038302;28;20300;-69
2023/10/18 02:08:22;;;;;;;23.23;19.60;;;;;;;;;;5056198;28;20623;-69
2023/10/18 02:10:50;;;;;;;19.53;14.50;;;;;;;;;;5056730;28;20185;-70
2023/10/18 02:13:18;;;;;;;17.87;11.73;;;;;;;;;;5038345;28;20179;-70
2023/10/18 02:15:45;;;;;;;21.20;18.83;;;;;;;;;;5038128;28;20189;-71
2023/10/18 02:18:13;;;;;;;21.93;15.97;;;;;;;;;;5055892;28;20179;-70
2023/10/18 02:20:50;;;;;;;20.00;17.50;;;;;;;;;;5037923;28;20186;-69
2023/10/18 02:23:16;;;;;;;20.73;17.67;;;;;;;;;;5037919;28;20174;-69
2023/10/18 02:25:43;;;;;;;17.77;15.70;;;;;;;;;;5037924;28;20210;-70
2023/10/18 02:28:22;;;;;;;22.63;18.57;;;;;;;;;;5037846;28;20427;-71
2023/10/18 02:31:13;;;;;;;23.57;18.93;;;;;;;;;;5056860;28;20177;-71
2023/10/18 02:33:45;;;;;;;22.27;19.87;;;;;;;;;;5056686;28;20155;-71
2023/10/18 02:36:11;;;;;;;24.40;20.73;;;;;;;;;;5038323;28;20205;-71
2023/10/18 02:38:41;;;;;;;25.87;22.17;;;;;;;;;;5056932;28;20548;-71
2023/10/18 02:41:26;;;;;;;26.50;22.97;;;;;;;;;;5038514;28;20182;-71
2023/10/18 02:43:54;;;;;;;28.40;22.93;;;;;;;;;;5056177;28;20170;-71
2023/10/18 02:46:23;;;;;;;25.00;22.27;;;;;;;;;;5055216;28;20712;-71
2023/10/18 02:48:52;;;;;;;22.50;18.43;;;;;;;;;;5037723;28;20240;-69
2023/10/18 02:51:22;;;;;;;23.57;19.67;;;;;;;;;;5055461;28;20523;-69
2023/10/18 02:53:52;;;;;;;19.70;16.17;;;;;;;;;;5038260;28;20252;-69
2023/10/18 02:56:26;;;;;;;23.97;19.97;;;;;;;;;;5038182;28;20198;-70
2023/10/18 02:58:53;;;;;;;22.00;18.77;;;;;;;;;;5056530;28;20161;-69
2023/10/18 03:01:19;;;;;;;21.67;18.60;;;;;;;;;;5039234;28;20186;-69
2023/10/18 03:03:54;;;;;;;21.57;17.57;;;;;;;;;;5056293;28;20228;-69
2023/10/18 03:06:24;;;;;;;22.33;19.97;;;;;;;;;;5038215;28;20222;-71
2023/10/18 03:08:50;;;;;;;27.07;22.57;;;;;;;;;;5038012;28;20182;-69
2023/10/18 03:11:20;;;;;;;24.60;20.00;;;;;;;;;;5056489;28;20175;-69
2023/10/18 03:13:46;;;;;;;28.57;24.63;;;;;;;;;;5038888;28;20175;-69
2023/10/18 03:16:15;;;;;;;25.13;20.80;;;;;;;;;;5039663;28;20310;-69
2023/10/18 03:18:44;;;;;;;19.33;15.77;;;;;;;;;;5057273;28;20185;-69
2023/10/18 03:21:20;;;;;;;17.17;13.83;;;;;;;;;;5056926;28;20205;-69
2023/10/18 03:23:53;;;;;;;15.30;13.13;;;;;;;;;;5058889;28;20248;-70
2023/10/18 03:26:23;;;;;;;17.57;14.03;;;;;;;;;;5040953;28;20214;-70
2023/10/18 03:28:52;;;;;;;15.20;12.17;;;;;;;;;;5038189;28;20553;-69
2023/10/18 03:31:23;;;;;;;18.10;13.43;;;;;;;;;;5037298;28;20174;-69
2023/10/18 03:33:53;;;;;;;16.87;14.13;;;;;;;;;;5037253;28;20170;-69
2023/10/18 03:36:25;;;;;;;16.07;12.07;;;;;;;;;;5054806;28;20747;-71
2023/10/18 03:38:54;;;;;;;15.63;13.20;;;;;;;;;;5055115;28;20162;-70
2023/10/18 03:41:23;;;;;;;10.83;8.83;;;;;;;;;;5036793;28;20273;-69
2023/10/18 03:43:49;;;;;;;16.00;13.63;;;;;;;;;;5079160;22;20311;-69
2023/10/18 03:46:19;;;;;;;14.93;13.27;;;;;;;;;;5036339;28;20219;-68
2023/10/18 03:48:55;;;;;;;17.17;13.03;;;;;;;;;;5036531;28;20174;-66
2023/10/18 03:51:23;;;;;;;15.47;13.83;;;;;;;;;;5036117;28;20190;-69
2023/10/18 03:53:53;;;;;;;18.63;14.33;;;;;;;;;;5054066;28;20213;-68
2023/10/18 03:56:22;;;;;;;14.13;12.27;;;;;;;;;;5035807;28;20671;-65
2023/10/18 03:59:01;;;;;;;15.23;13.60;;;;;;;;;;5036033;28;20210;-68
2023/10/18 04:01:41;;;;;;;16.00;13.60;;;;;;;;;;5056023;28;20162;-69
2023/10/18 04:04:07;;;;;;;16.50;12.83;;;;;;;;;;5058231;28;20194;-65
2023/10/18 04:06:35;;;;;;;14.43;12.13;;;;;;;;;;5039577;28;20676;-66
2023/10/18 04:09:13;;;;;;;13.50;11.10;;;;;;;;;;5058091;28;20622;-65
2023/10/18 04:11:40;;;;;;;14.33;11.87;;;;;;;;;;5040319;28;20171;-70
2023/10/18 04:14:06;;;;;;;11.17;8.97;;;;;;;;;;5040093;28;20202;-66
2023/10/18 04:16:33;;;;;;;15.90;12.27;;;;;;;;;;5058604;28;20178;-67
2023/10/18 04:19:02;;;;;;;15.40;12.60;;;;;;;;;;5058790;28;20194;-65
2023/10/18 04:21:27;;;;;;;13.87;11.30;;;;;;;;;;5058091;28;20170;-66
2023/10/18 04:23:56;;;;;;;14.83;11.47;;;;;;;;;;5057781;28;20206;-68
2023/10/18 04:26:25;;;;;;;13.30;11.97;;;;;;;;;;5057852;28;20202;-66
2023/10/18 04:28:55;;;;;;;13.03;11.60;;;;;;;;;;5057406;28;20250;-69
2023/10/18 04:31:21;;;;;;;12.67;11.37;;;;;;;;;;5057910;28;20163;-70
2023/10/18 04:33:52;;;;;;;14.97;11.43;;;;;;;;;;5057537;28;20221;-66
2023/10/18 04:36:21;;;;;;;12.30;10.60;;;;;;;;;;5040102;28;20178;-68
2023/10/18 04:38:47;;;;;;;16.00;11.80;;;;;;;;;;5039701;28;20247;-69
2023/10/18 04:41:23;;;;;;;12.53;10.00;;;;;;;;;;5039601;28;20273;-70
2023/10/18 04:43:56;;;;;;;15.50;10.77;;;;;;;;;;5039499;28;20221;-66
2023/10/18 04:46:31;;;;;;;14.13;10.87;;;;;;;;;;5039577;28;20208;-71
2023/10/18 04:51:28;;;;;;;14.07;10.50;;;;;;;;;;5057783;28;20264;-65
2023/10/18 04:54:03;;;;;;;9.53;8.13;;;;;;;;;;5039441;28;20199;-66
2023/10/18 04:56:34;;;;;;;13.27;9.17;;;;;;;;;;5039233;28;20166;-65
2023/10/18 04:59:00;;;;;;;13.00;8.87;;;;;;;;;;5039481;28;20220;-65
2023/10/18 05:01:42;;;;;;;14.40;9.27;;;;;;;;;;5057115;28;20599;-69
2023/10/18 05:04:18;;;;;;;10.10;9.03;;;;;;;;;;5057004;28;20208;-69
2023/10/18 05:06:45;;;;;;;12.27;8.83;;;;;;;;;;5039854;28;20240;-66
2023/10/18 05:09:12;;;;;;;11.63;9.83;;;;;;;;;;5039004;28;20671;-70
2023/10/18 05:11:47;;;;;;;13.37;10.20;;;;;;;;;;5057051;28;20178;-67
2023/10/18 05:14:19;;;;;;;14.30;10.13;;;;;;;;;;5037991;28;20205;-67
2023/10/18 05:16:46;;;;;;;12.03;10.53;;;;;;;;;;5056696;28;20155;-65
2023/10/18 05:19:12;;;;;;;12.00;9.80;;;;;;;;;;5056704;28;20587;-68
2023/10/18 05:21:41;;;;;;;11.63;10.07;;;;;;;;;;5056851;28;20186;-67
2023/10/18 05:24:11;;;;;;;9.07;7.27;;;;;;;;;;5038789;28;20202;-67
2023/10/18 05:26:37;;;;;;;11.87;9.27;;;;;;;;;;5056511;28;20567;-68
2023/10/18 05:29:05;;;;;;;17.53;10.57;;;;;;;;;;5038566;28;20174;-66
2023/10/18 05:32:05;;;;;;;13.30;10.10;;;;;;;;;;5038352;28;20179;-70
2023/10/18 05:34:48;;;;;;;12.90;10.07;;;;;;;;;;5056069;28;20167;-66
2023/10/18 05:37:15;;;;;;;13.40;10.77;;;;;;;;;;5056819;28;20155;-67
2023/10/18 05:40:08;;;;;;;12.50;9.73;;;;;;;;;;5056016;28;20181;-69
2023/10/18 05:42:35;;;;;;;13.07;9.43;;;;;;;;;;5056050;28;20588;-69
2023/10/18 05:45:01;;;;;;;12.27;9.57;;;;;;;;;;5038093;28;20210;-67
2023/10/18 05:47:29;;;;;;;14.63;10.60;;;;;;;;;;5056312;28;20258;-66
2023/10/18 05:49:56;;;;;;;12.07;10.63;;;;;;;;;;5038470;28;20175;-68
2023/10/18 05:52:37;;;;;;;15.83;9.87;;;;;;;;;;5056340;28;20248;-66
2023/10/18 05:55:10;;;;;;;9.10;6.80;;;;;;;;;;5037933;28;20181;-67
2023/10/18 05:57:37;;;;;;;14.20;10.00;;;;;;;;;;5037901;28;20676;-67
2023/10/18 06:00:17;;;;;;;13.73;8.67;;;;;;;;;;5037810;28;20200;-65
2023/10/18 06:02:45;;;;;;;17.57;8.83;;;;;;;;;;5056165;28;20202;-67
2023/10/18 06:05:11;;;;;;;14.17;9.83;;;;;;;;;;5037851;28;20214;-67
2023/10/18 06:07:37;;;;;;;13.77;9.50;;;;;;;;;;5056037;28;20258;-69
2023/10/18 06:10:13;;;;;;;9.20;7.27;;;;;;;;;;5055955;28;20178;-72
2023/10/18 06:12:46;;;;;;;12.40;8.23;;;;;;;;;;5037906;28;20202;-71
2023/10/18 06:15:13;;;;;;;11.80;9.03;;;;;;;;;;5056426;28;20163;-68
2023/10/18 06:20:24;;;;;;;8.10;6.03;;;;;;;;;;5056005;28;20170;-68
2023/10/18 06:22:50;;;;;;;12.27;9.10;;;;;;;;;;5055922;28;20198;-70
2023/10/18 06:25:25;;;;;;;10.40;8.07;;;;;;;;;;5054560;28;20228;-67
2023/10/18 06:27:53;;;;;;;11.10;6.07;;;;;;;;;;5055888;28;20204;-69
2023/10/18 06:30:19;;;;;;;13.87;7.63;;;;;;;;;;5037674;28;20702;-70
2023/10/18 06:32:46;;;;;;;14.33;9.80;;;;;;;;;;5055612;28;20202;-68
2023/10/18 06:35:17;;;;;;;8.17;6.10;;;;;;;;;;5037246;28;20183;-68
2023/10/18 06:37:44;;;;;;;13.80;7.90;;;;;;;;;;5054854;28;20296;-66
2023/10/18 06:40:40;;;;;;;11.13;7.97;;;;;;;;;;5055070;28;20623;-68
2023/10/18 06:43:06;;;;;;;14.77;9.87;;;;;;;;;;5055210;28;20749;-69
2023/10/18 06:45:37;;;;;;;11.67;9.27;;;;;;;;;;5037577;28;20660;-67
2023/10/18 06:48:03;;;;;;;10.63;6.27;;;;;;;;;;5055330;28;20246;-68
2023/10/18 06:50:29;;;;;;;11.57;8.13;;;;;;;;;;5055598;28;20563;-69
2023/10/18 06:52:56;;;;;;;12.80;9.47;;;;;;;;;;5057593;28;20190;-66
2023/10/18 07:01:13;;;;;;;13.80;9.27;;;;;;;;;;5034443;28;20182;-66
2023/10/18 07:03:42;;;;;;;15.23;9.03;;;;;;;;;;5037435;28;20209;-68
2023/10/18 07:06:18;;;;;;;10.33;8.80;;;;;;;;;;5055106;28;20285;-66
2023/10/18 07:08:49;;;;;;;11.30;7.73;;;;;;;;;;5036939;28;20235;-65
2023/10/18 07:11:19;;;;;;;11.93;8.20;;;;;;;;;;5054927;28;20162;-69
2023/10/18 07:13:50;;;;;;;14.03;9.20;;;;;;;;;;5054937;28;20236;-69
2023/10/18 07:21:43;;;;;;;10.57;8.83;;;;;;;;;;5054611;28;20682;-66
2023/10/18 07:24:09;;;;;;;11.73;8.80;;;;;;;;;;5054899;28;20198;-69
2023/10/18 07:26:35;;;;;;;11.40;8.53;;;;;;;;;;5054346;28;20230;-66
2023/10/18 07:29:06;;;;;;;12.77;9.63;;;;;;;;;;5054377;28;20647;-66
2023/10/18 07:31:35;;;;;;;10.40;7.80;;;;;;;;;;5054709;28;20181;-68
2023/10/18 07:34:03;;;;;;;19.83;9.27;;;;;;;;;;5036127;28;20204;-70
2023/10/18 07:36:35;;;;;;;11.43;8.10;;;;;;;;;;5054186;28;20240;-69
2023/10/18 07:39:04;;;;;;;10.03;7.43;;;;;;;;;;5054703;28;20159;-69
2023/10/18 07:41:30;;;;;;;11.77;8.50;;;;;;;;;;5055077;28;20182;-66
2023/10/18 07:43:57;;;;;;;11.83;7.50;;;;;;;;;;5036642;28;20336;-70
2023/10/18 07:46:27;;;;;;;11.80;8.70;;;;;;;;;;5054698;28;20202;-70
2023/10/18 07:49:04;;;;;;;12.27;8.40;;;;;;;;;;5054752;28;20206;-67
2023/10/18 07:51:31;;;;;;;12.40;7.43;;;;;;;;;;5037877;28;20200;-68
2023/10/18 07:53:59;;;;;;;8.67;7.10;;;;;;;;;;5039091;28;20206;-69
2023/10/18 07:56:32;;;;;;;12.23;8.47;;;;;;;;;;5049103;28;20236;-69
2023/10/18 08:01:47;;;;;;;15.17;9.30;;;;;;;;;;5069624;28;20177;-69
2023/10/18 08:04:14;;;;;;;13.77;7.80;;;;;;;;;;5050954;28;20212;-69
2023/10/18 08:06:40;;;;;;;11.03;8.93;;;;;;;;;;5050552;28;20224;-69
2023/10/18 08:09:06;;;;;;;10.23;7.50;;;;;;;;;;5047719;28;20247;-68
2023/10/18 08:11:34;;;;;;;14.17;8.77;;;;;;;;;;5042062;28;20251;-69
2023/10/18 08:14:00;;;;;;;13.83;8.87;;;;;;;;;;5036362;28;20557;-67
2023/10/18 08:16:42;;;;;;;17.87;7.53;;;;;;;;;;5035888;28;20604;-68
2023/10/18 08:19:09;;;;;;;12.83;8.47;;;;;;;;;;5036817;28;20649;-69
2023/10/18 08:21:38;;;;;;;9.97;7.80;;;;;;;;;;5053642;28;20182;-69
2023/10/18 08:24:08;;;;;;;17.10;8.23;;;;;;;;;;5053573;28;20198;-67
2023/10/18 08:27:00;;;;;;;8.33;7.43;;;;;;;;;;5036051;28;20287;-68
2023/10/18 08:29:27;;;;;;;9.90;8.43;;;;;;;;;;5054493;28;20211;-68
2023/10/18 08:32:03;;;;;;;15.83;8.77;;;;;;;;;;5035579;28;20273;-70
2023/10/18 08:34:31;;;;;;;9.47;7.30;;;;;;;;;;5053616;28;20158;-69
2023/10/18 08:37:04;;;;;;;7.53;6.67;;;;;;;;;;5054566;28;20193;-68
2023/10/18 08:39:31;;;;;;;13.67;8.40;;;;;;;;;;5054357;28;20155;-69
2023/10/18 08:42:02;;;;;;;12.93;7.87;;;;;;;;;;5053405;28;20182;-69
2023/10/18 08:44:31;;;;;;;11.70;7.77;;;;;;;;;;5054100;28;20222;-70
2023/10/18 08:49:44;;;;;;;11.43;7.27;;;;;;;;;;5058008;28;20170;-68
2023/10/18 08:52:10;;;;;;;12.00;7.40;;;;;;;;;;5058098;28;20530;-68
2023/10/18 08:54:37;;;;;;;12.10;7.47;;;;;;;;;;5057618;28;20183;-68
2023/10/18 08:57:06;;;;;;;13.00;7.87;;;;;;;;;;5039631;28;20175;-68
2023/10/18 08:59:51;;;;;;;11.10;7.03;;;;;;;;;;5058057;28;20174;-68
2023/10/18 09:02:18;;;;;;;10.10;8.23;;;;;;;;;;5039466;28;20199;-68
2023/10/18 09:04:51;;;;;;;11.60;7.90;;;;;;;;;;5057279;28;20227;-70
2023/10/18 09:07:19;;;;;;;14.20;8.50;;;;;;;;;;5038897;28;20684;-69
2023/10/18 09:09:56;;;;;;;14.47;8.43;;;;;;;;;;5038382;28;20596;-70
2023/10/18 09:13:32;;;;;;;14.07;8.60;;;;;;;;;;5055333;28;20213;-70
2023/10/18 09:15:27;;;;;;;9.43;6.33;;;;;;;;;;5046872;28;20199;-69
2023/10/18 09:18:03;;;;;;;12.33;7.33;;;;;;;;;;5056055;28;20166;-71
2023/10/18 09:20:30;;;;;;;12.50;8.70;;;;;;;;;;5038102;28;20186;-71
2023/10/18 09:23:14;;;;;;;9.50;8.00;;;;;;;;;;5037087;28;20202;-68
2023/10/18 09:25:49;;;;;;;15.10;8.47;;;;;;;;;;5037674;28;20194;-70
2023/10/18 09:28:25;;;;;;;15.27;8.50;;;;;;;;;;5038718;28;20166;-69
2023/10/18 09:30:54;;;;;;;9.63;6.17;;;;;;;;;;5056409;28;20158;-68
2023/10/18 09:33:21;;;;;;;12.27;7.67;;;;;;;;;;5056502;28;20199;-69
2023/10/18 09:35:49;;;;;;;11.63;7.13;;;;;;;;;;5055266;28;20258;-69
2023/10/18 09:38:18;;;;;;;11.00;7.97;;;;;;;;;;5036813;28;20182;-71
2023/10/18 09:40:44;;;;;;;12.90;8.17;;;;;;;;;;5036777;28;20187;-69
2023/10/18 09:43:10;;;;;;;13.23;7.87;;;;;;;;;;5054376;28;20221;-68
2023/10/18 09:45:36;;;;;;;9.03;7.20;;;;;;;;;;5054667;28;20211;-71
2023/10/18 09:48:02;;;;;;;13.30;7.80;;;;;;;;;;5054769;28;20175;-68
2023/10/18 09:50:34;;;;;;;12.90;8.50;;;;;;;;;;5036878;28;20217;-69
2023/10/18 09:53:00;;;;;;;11.70;8.53;;;;;;;;;;5036538;28;20713;-69
2023/10/18 09:55:27;;;;;;;13.27;8.53;;;;;;;;;;5054634;28;20182;-69
2023/10/18 09:58:02;;;;;;;9.73;7.03;;;;;;;;;;5036364;28;20312;-69
2023/10/18 10:00:29;;;;;;;9.70;7.30;;;;;;;;;;5036020;28;20178;-67
2023/10/18 10:05:26;;;;;;;10.53;7.40;;;;;;;;;;5072323;22;20264;-69
2023/10/18 10:07:55;;;;;;;18.87;7.67;;;;;;;;;;5036863;28;20183;-70
2023/10/18 10:10:24;;;;;;;12.37;8.27;;;;;;;;;;5036901;28;20193;-69
2023/10/18 10:12:57;;;;;;;7.73;6.80;;;;;;;;;;5055237;28;20178;-69
2023/10/18 10:15:28;;;;;;;15.57;7.70;;;;;;;;;;5054888;28;20664;-69
2023/10/18 10:17:58;;;;;;;9.53;7.37;;;;;;;;;;5055108;28;20162;-69
2023/10/18 10:20:31;;;;;;;10.70;7.40;;;;;;;;;;5054539;28;20174;-69
2023/10/18 10:23:02;;;;;;;10.47;7.87;;;;;;;;;;5054759;28;20159;-69
2023/10/18 10:25:31;;;;;;;8.93;6.17;;;;;;;;;;5054787;28;20195;-69
2023/10/18 10:28:13;;;;;;;12.93;7.37;;;;;;;;;;5054430;28;20181;-69
2023/10/18 10:30:43;;;;;;;13.53;7.00;;;;;;;;;;5054730;28;20189;-69
2023/10/18 10:33:12;;;;;;;16.40;6.70;;;;;;;;;;5036491;28;20257;-70
2023/10/18 10:35:44;;;;;;;17.20;7.43;;;;;;;;;;5054327;28;20174;-70
2023/10/18 10:38:13;;;;;;;16.23;7.37;;;;;;;;;;5037467;28;20174;-70
2023/10/18 10:40:48;;;;;;;13.60;6.60;;;;;;;;;;5055492;28;20171;-71
2023/10/18 10:43:14;;;;;;;10.67;7.07;;;;;;;;;;5037228;28;20610;-69
2023/10/18 10:48:28;;;;;;;8.43;6.43;;;;;;;;;;5054364;28;20163;-69
2023/10/18 10:51:06;;;;;;;9.60;6.77;;;;;;;;;;5036957;28;20186;-69
2023/10/18 10:53:45;;;;;;;12.73;6.70;;;;;;;;;;5036053;28;20208;-69
2023/10/18 10:56:18;;;;;;;10.57;6.63;;;;;;;;;;5035870;28;20235;-69
2023/10/18 10:59:21;;;;;;;10.47;6.33;;;;;;;;;;5036299;28;20221;-69
2023/10/18 11:04:46;;;;;;;9.87;5.17;;;;;;;;;;5054530;28;20286;-70
2023/10/18 11:07:13;;;;;;;10.90;6.30;;;;;;;;;;5036020;28;20224;-71
2023/10/18 11:09:42;;;;;;;14.40;6.10;;;;;;;;;;5036095;28;20216;-70
2023/10/18 11:12:10;;;;;;;9.17;6.20;;;;;;;;;;5035210;28;20186;-69
2023/10/18 11:14:36;;;;;;;10.37;6.67;;;;;;;;;;5036100;28;20287;-68
2023/10/18 11:19:43;;;;;;;9.33;6.07;;;;;;;;;;5055660;28;20250;-70
2023/10/18 11:22:11;;;;;;;6.57;5.10;;;;;;;;;;5055931;28;20178;-69
2023/10/18 11:24:41;;;;;;;8.93;6.03;;;;;;;;;;5055114;28;20222;-69
2023/10/18 11:27:10;;;;;;;13.03;5.87;;;;;;;;;;5037235;28;20174;-69
2023/10/18 11:29:41;;;;;;;7.30;4.53;;;;;;;;;;5038004;28;20236;-69
2023/10/18 11:32:07;;;;;;;9.50;5.70;;;;;;;;;;5038935;28;20625;-70
2023/10/18 11:34:33;;;;;;;13.10;6.30;;;;;;;;;;5041598;28;20209;-69
2023/10/18 11:37:02;;;;;;;11.37;5.63;;;;;;;;;;5054145;28;20175;-70
2023/10/18 11:39:32;;;;;;;8.53;5.50;;;;;;;;;;5053842;28;20166;-70
2023/10/18 11:41:59;;;;;;;7.87;5.37;;;;;;;;;;5035628;28;20181;-70
2023/10/18 11:44:31;;;;;;;10.77;5.53;;;;;;;;;;5035795;28;20205;-69
2023/10/18 11:47:01;;;;;;;10.97;5.57;;;;;;;;;;5036633;28;20221;-69
2023/10/18 11:49:38;;;;;;;12.43;5.43;;;;;;;;;;5036328;28;20293;-69
2023/10/18 11:52:04;;;;;;;13.60;5.87;;;;;;;;;;5053909;28;20185;-70
2023/10/18 11:54:36;;;;;;;11.73;5.47;;;;;;;;;;5035645;28;20190;-70
2023/10/18 11:57:05;;;;;;;10.17;5.10;;;;;;;;;;5053577;28;20652;-71
2023/10/18 11:59:49;;;;;;;14.80;5.50;;;;;;;;;;5054694;28;20173;-70
2023/10/18 12:02:15;;;;;;;11.40;4.97;;;;;;;;;;5035830;28;20204;-70
2023/10/18 12:04:44;;;;;;;7.60;4.70;;;;;;;;;;5053357;28;20217;-70
2023/10/18 12:07:13;;;;;;;13.97;5.20;;;;;;;;;;5035733;28;20178;-70
2023/10/18 12:09:46;;;;;;;7.27;4.70;;;;;;;;;;5053917;28;20166;-70
2023/10/18 12:12:19;;;;;;;11.33;4.67;;;;;;;;;;5053443;28;20159;-70
2023/10/18 12:14:45;;;;;;;13.03;4.23;;;;;;;;;;5035433;28;20232;-70
2023/10/18 12:17:13;;;;;;;10.27;4.93;;;;;;;;;;5035447;28;20175;-70
2023/10/18 12:19:39;;;;;;;8.13;3.45;;;;;;;;;;5052413;28;20860;-70
2023/10/18 12:22:05;;;;;;;7.38;3.03;;;;;;;;;;5035362;28;20382;-70
2023/10/18 12:24:34;;;;;;;6.47;2.90;;;;;;;;;;5038318;28;20920;-70
2023/10/18 12:27:18;;;;;;;4.95;2.88;;;;;;;;;;5058185;28;20385;-70
2023/10/18 12:29:44;;;;;;;5.25;2.72;;;;;;;;;;5038600;28;20463;-69
2023/10/18 12:32:23;;;;;;;5.25;2.60;;;;;;;;;;5038112;28;20380;-70
2023/10/18 12:34:49;;;;;;;3.97;2.28;;;;;;;;;;5055351;28;20370;-70
2023/10/18 12:37:18;;;;;;;3.00;2.45;;;;;;;;;;5055661;28;20435;-70
2023/10/18 12:39:47;;;;;;;3.30;2.25;;;;;;;;;;5055857;28;20409;-70
2023/10/18 12:42:16;;;;;;;4.75;2.80;;;;;;;;;;5055682;28;20372;-70
2023/10/18 12:44:46;;;;;;;3.97;2.67;;;;;;;;;;5055742;28;20449;-70
2023/10/18 12:47:12;;;;;;;6.60;2.50;;;;;;;;;;5037606;28;20393;-70
2023/10/18 12:49:44;;;;;;;8.35;3.05;;;;;;;;;;5037683;28;20816;-70
2023/10/18 12:52:40;;;;;;;6.55;2.90;;;;;;;;;;5037668;28;20388;-70
2023/10/18 12:54:56;;;;;;;8.40;3.63;;;;;;;;;;5055074;28;20420;-70
2023/10/18 12:57:26;;;;;;;6.13;3.50;;;;;;;;;;5037374;28;20727;-70
2023/10/18 13:05:40;;;;;;;4.80;2.65;;;;;;;;;;4993661;28;20446;-70
2023/10/18 13:08:16;;;;;;;5.28;2.88;;;;;;;;;;4977441;28;20506;-70
2023/10/18 13:10:48;;;;;;;7.10;3.50;;;;;;;;;;5031836;28;20385;-70
2023/10/18 13:13:16;;;;;;;4.72;3.20;;;;;;;;;;5037308;28;20396;-70
2023/10/18 13:15:43;;;;;;;7.47;3.63;;;;;;;;;;5037225;28;20389;-70
2023/10/18 13:18:11;;;;;;;9.00;3.60;;;;;;;;;;5037071;28;20755;-70
2023/10/18 13:20:43;;;;;;;8.83;3.13;;;;;;;;;;5056184;28;20385;-71
2023/10/18 13:23:09;;;;;;;4.67;2.87;;;;;;;;;;5055126;28;20958;-70
2023/10/18 13:25:49;;;;;;;5.93;3.20;;;;;;;;;;5036696;28;20409;-70
2023/10/18 13:28:24;;;;;;;5.68;3.35;;;;;;;;;;5054980;28;20386;-70
2023/10/18 13:30:51;;;;;;;6.72;3.78;;;;;;;;;;5036557;28;20381;-70
2023/10/18 13:33:18;;;;;;;6.50;3.33;;;;;;;;;;5053850;28;20431;-70
2023/10/18 13:35:44;;;;;;;6.80;3.50;;;;;;;;;;5036362;28;20393;-70
2023/10/18 13:38:11;;;;;;;9.13;3.90;;;;;;;;;;5036302;28;20451;-72
2023/10/18 13:40:37;;;;;;;7.40;3.97;;;;;;;;;;5036367;28;20389;-70
2023/10/18 13:43:09;;;;;;;8.02;4.20;;;;;;;;;;5036157;28;20480;-70
2023/10/18 13:45:37;;;;;;;9.25;4.20;;;;;;;;;;5053952;28;20488;-70
2023/10/18 13:48:03;;;;;;;7.75;4.18;;;;;;;;;;5053936;28;20464;-70
2023/10/18 13:50:31;;;;;;;5.30;3.80;;;;;;;;;;5054323;28;20851;-70
2023/10/18 13:52:57;;;;;;;6.97;3.50;;;;;;;;;;5036344;28;20744;-70
2023/10/18 13:55:23;;;;;;;8.00;3.70;;;;;;;;;;5036208;28;20400;-70
2023/10/18 13:57:49;;;;;;;8.63;3.70;;;;;;;;;;5053885;28;20390;-70
2023/10/18 14:00:18;;;;;;;6.13;3.38;;;;;;;;;;5053998;28;20388;-71
2023/10/18 14:02:45;;;;;;;6.15;3.42;;;;;;;;;;5035808;28;20385;-70
2023/10/18 14:05:11;;;;;;;6.22;3.50;;;;;;;;;;5035937;28;20408;-71
2023/10/18 14:07:37;;;;;;;6.63;3.72;;;;;;;;;;5053676;28;20378;-71
2023/10/18 14:10:19;;;;;;;7.43;3.63;;;;;;;;;;5053783;28;20380;-70
2023/10/18 14:12:48;;;;;;;7.35;4.80;;;;;;;;;;5054139;28;20937;-70
2023/10/18 14:15:19;;;;;;;7.10;3.95;;;;;;;;;;5054400;28;20736;-70
2023/10/18 14:17:46;;;;;;;9.77;3.92;;;;;;;;;;5053588;28;20426;-70
2023/10/18 14:20:12;;;;;;;10.27;4.63;;;;;;;;;;5053592;28;20451;-70
2023/10/18 14:22:39;;;;;;;7.90;3.75;;;;;;;;;;5035581;28;20887;-70
2023/10/18 14:25:08;;;;;;;8.35;3.60;;;;;;;;;;5035186;28;20466;-70
2023/10/18 14:27:37;;;;;;;7.45;4.45;;;;;;;;;;5035333;28;20488;-70
2023/10/18 14:30:04;;;;;;;7.78;3.55;;;;;;;;;;5035530;28;20461;-70
2023/10/18 14:32:30;;;;;;;6.53;3.65;;;;;;;;;;5053167;28;20894;-70
2023/10/18 14:34:57;;;;;;;6.50;3.13;;;;;;;;;;5035052;28;20465;-70
2023/10/18 14:37:23;;;;;;;4.35;2.90;;;;;;;;;;5053523;28;20382;-70
2023/10/18 14:39:50;;;;;;;5.03;2.78;;;;;;;;;;5035253;28;20480;-70
2023/10/18 14:42:16;;;;;;;5.78;3.13;;;;;;;;;;5053136;28;20397;-70
2023/10/18 14:44:42;;;;;;;5.47;2.87;;;;;;;;;;5052797;28;20993;-70
2023/10/18 14:47:08;;;;;;;7.15;2.78;;;;;;;;;;5034629;28;20736;-71
2023/10/18 14:49:34;;;;;;;6.00;3.05;;;;;;;;;;5034931;28;20390;-70
2023/10/18 14:52:00;;;;;;;4.15;2.58;;;;;;;;;;5035047;28;20385;-70
2023/10/18 14:54:26;;;;;;;4.60;2.73;;;;;;;;;;5034909;28;20374;-70
2023/10/18 14:56:52;;;;;;;6.15;2.95;;;;;;;;;;5052752;28;20882;-71
2023/10/18 14:59:18;;;;;;;4.75;3.05;;;;;;;;;;5052698;28;20443;-70
2023/10/18 15:01:44;;;;;;;4.18;2.75;;;;;;;;;;5034856;28;20394;-69
2023/10/18 15:04:11;;;;;;;8.75;3.00;;;;;;;;;;5035006;28;20429;-68
2023/10/18 15:06:37;;;;;;;6.03;2.80;;;;;;;;;;5035302;28;20872;-69
2023/10/18 15:09:04;;;;;;;3.90;2.80;;;;;;;;;;5035485;28;20417;-70
2023/10/18 15:11:30;;;;;;;4.05;2.55;;;;;;;;;;5034978;28;20413;-70
2023/10/18 15:13:56;;;;;;;4.68;2.92;;;;;;;;;;5035087;28;20859;-70
2023/10/18 15:16:22;;;;;;;4.97;2.85;;;;;;;;;;5034955;28;20377;-70
2023/10/18 15:18:48;;;;;;;4.88;2.80;;;;;;;;;;5034732;28;20419;-70
2023/10/18 15:21:15;;;;;;;4.18;2.60;;;;;;;;;;5034965;28;20381;-69
2023/10/18 15:23:44;;;;;;;7.22;3.13;;;;;;;;;;5052534;28;20377;-70